Nearby METAR Reports



KADS - Dallas/Addison, Texas, USA
Distance from station: SSW 10mi, 16km
Updated: Mon, 18-Feb-2019 7:47pm CST
Mostly cloudy
Mostly cloudy
 Wind from NE
Wind: NE 9 mph , 15 km/h, Gust: 17 mph , 28 km/h
Temperature: 39°F , 4°C
Wind Chill: 33°F , 1°C
Dew Point: 21°F , -6°C
Humidity: 48%
Barometer: 30.29 inHg , 1025.7 hPa
Clouds: Mostly cloudy
Visibility: 10 miles , 16 km
Cloud details: Mostly cloudy 21000 ft
2019/02/19 01:47 KADS 190147Z 04008G15KT 10SM BKN210 04/M06 A3029
KTKI - Mckinney, Texas, USA
Distance from station: ENE 11mi, 18km
Updated: Mon, 18-Feb-2019 7:53pm CST
Clear
Clear
 Wind from NNE
Wind: NNE 9 mph , 15 km/h
Temperature: 37°F , 3°C
Wind Chill: 30°F , -1°C
Dew Point: 23°F , -5°C
Humidity: 56%
Barometer: 30.30 inHg , 1026.1 hPa
Clouds: Clear
Visibility: 10 miles , 16 km
2019/02/19 01:53 KTKI 190153Z 03008KT 10SM CLR 03/M05 A3030 RMK AO2 SLP275 T00331050
 
KDAL - Dallas/Love Fld, Texas, USA
Distance from station: SSW 18mi, 30km
Updated: Mon, 18-Feb-2019 7:53pm CST
Overcast
Overcast
 Wind from NE
Wind: NE 10 mph , 17 km/h
Temperature: 39°F , 4°C
Wind Chill: 32°F , 0°C
Dew Point: 21°F , -6°C
Humidity: 48%
Barometer: 30.29 inHg , 1025.7 hPa
Clouds: Overcast
Visibility: 10 miles , 16 km
Cloud details: Few Clouds 17000 ft
Mostly cloudy 21000 ft
Overcast 25000 ft
2019/02/19 01:53 KDAL 190153Z 04009KT 10SM FEW170 BKN210 OVC250 04/M06 A3029 RMK AO2 SLP258 T00441056 $
KDFW - Dallas/Ft Worth, Texas, USA
Distance from station: SW 21mi, 34km
Updated: Mon, 18-Feb-2019 7:53pm CST
Overcast
Overcast
 Wind from NE
Wind: NE 13 mph , 20 km/h
Temperature: 37°F , 3°C
Wind Chill: 29°F , -2°C
Dew Point: 21°F , -6°C
Humidity: 52%
Barometer: 30.27 inHg , 1025.1 hPa
Clouds: Overcast
Visibility: 10 miles , 16 km
Cloud details: Partly cloudy 23000 ft
Mostly cloudy 24000 ft
Overcast 25000 ft
2019/02/19 01:53 KDFW 190153Z 04011KT 10SM SCT230 BKN240 OVC250 03/M06 A3027 RMK AO2 SLP254 T00331056 $
 
KF46 - Rockwall, Texas, USA
Distance from station: ESE 22mi, 35km
Updated: Mon, 18-Feb-2019 8:35pm CST
Clear
Clear
 Wind from NE
Wind: NE 8 mph , 13 km/h
Temperature: 37°F , 3°C
Wind Chill: 31°F , -1°C
Dew Point: 25°F , -4°C
Humidity: 60%
Barometer: 30.29 inHg , 1025.7 hPa
Clouds: Clear
Visibility: 10 miles , 16 km
2019/02/19 02:35 KF46 190235Z AUTO 04007KT 10SM CLR 03/M04 A3029 RMK AO2 T00331039
KDTO - Denton, Texas, USA
Distance from station: WNW 27mi, 43km
Updated: Mon, 18-Feb-2019 7:53pm CST
Clear
Clear
 Wind from NNE
Wind: NNE 12 mph , 19 km/h
Temperature: 37°F , 3°C
Wind Chill: 29°F , -2°C
Dew Point: 21°F , -6°C
Humidity: 52%
Barometer: 30.30 inHg , 1026.1 hPa
Clouds: Clear
Visibility: 10 miles , 16 km
2019/02/19 01:53 KDTO 190153Z 03010KT 10SM CLR 03/M06 A3030 RMK AO2 SLP264 T00281061
 
KHQZ - Mesquite, Texas, USA
Distance from station: SSE 28mi, 44km
Updated: Mon, 18-Feb-2019 7:50pm CST
Clear
Clear
 Wind from N
Wind: N 9 mph , 15 km/h
Temperature: 39°F , 4°C
Wind Chill: 33°F , 1°C
Dew Point: 25°F , -4°C
Humidity: 56%
Barometer: 30.30 inHg , 1026.1 hPa
Clouds: Clear
Visibility: 10 miles , 16 km
2019/02/19 01:50 KHQZ 190150Z 01008KT 10SM CLR 04/M04 A3030
KRBD - Dallas/Redbird, Texas, USA
Distance from station: SSW 30mi, 48km
Updated: Mon, 18-Feb-2019 7:53pm CST

 Wind from NE
Wind: NE 13 mph , 20 km/h
Temperature: 39°F , 4°C
Wind Chill: 31°F , -1°C
Dew Point: 23°F , -5°C
Humidity: 52%
Barometer: 30.27 inHg , 1025.1 hPa
Visibility: 10 miles , 16 km
2019/02/19 01:53 KRBD 190153Z 04011KT 10SM 04/M05 A3027 RMK AO2 SLP252 T00441050 $
 
KGPM - Grand Prairie, Texas, USA
Distance from station: SSW 33mi, 53km
Updated: Mon, 18-Feb-2019 8:35pm CST
Clear
Clear
 Wind from NNE
Wind: NNE 9 mph , 15 km/h
Temperature: 39°F , 4°C
Wind Chill: 33°F , 1°C
Dew Point: 23°F , -5°C
Humidity: 52%
Barometer: 30.30 inHg , 1026.1 hPa
Clouds: Clear
Visibility: 10 miles , 16 km
2019/02/19 02:35 KGPM 190235Z AUTO 02008KT 10SM CLR 04/M05 A3030 RMK AO2 T00401055
KAFW - Ft Worth/Allianc, Texas, USA
Distance from station: WSW 34mi, 55km
Updated: Mon, 18-Feb-2019 7:53pm CST
Overcast
Overcast
 Wind from NE
Wind: NE 13 mph , 20 km/h
Temperature: 37°F , 3°C
Wind Chill: 29°F , -2°C
Dew Point: 21°F , -6°C
Humidity: 52%
Barometer: 30.29 inHg , 1025.7 hPa
Clouds: Overcast
Visibility: 10 miles , 16 km
Cloud details: Overcast 24000 ft
2019/02/19 01:53 KAFW 190153Z 04011KT 10SM OVC240 03/M06 A3029 RMK AO2 SLP267 T00331061
 
KLNC - Lancaster, Texas, USA
Distance from station: S 36mi, 58km
Updated: Mon, 18-Feb-2019 8:35pm CST
Clear
Clear
 Wind from NE
Wind: NE 10 mph , 17 km/h
Temperature: 41°F , 5°C
Wind Chill: 35°F , 2°C
Dew Point: 25°F , -4°C
Humidity: 53%
Barometer: 30.29 inHg , 1025.7 hPa
Clouds: Clear
Visibility: 10 miles , 16 km
2019/02/19 02:35 KLNC 190235Z AUTO 04009KT 10SM CLR 05/M04 A3029 RMK AO2 T00451037
KGKY - Arlington, Texas, USA
Distance from station: SSW 36mi, 59km
Updated: Mon, 18-Feb-2019 7:53pm CST
Clear
Clear
 Wind from NNE
Wind: NNE 13 mph , 20 km/h
Temperature: 41°F , 5°C
Wind Chill: 34°F , 1°C
Dew Point: 21°F , -6°C
Humidity: 45%
Barometer: 30.28 inHg , 1025.4 hPa
Clouds: Clear
Visibility: 10 miles , 16 km
2019/02/19 01:53 KGKY 190153Z 03011KT 10SM CLR 05/M06 A3028 RMK AO2 SLP253 T00501056
 
KTRL - Terrell, Texas, USA
Distance from station: SE 39mi, 63km
Updated: Mon, 18-Feb-2019 7:53pm CST
Clear
Clear
 Wind from NNE
Wind: NNE 12 mph , 19 km/h
Temperature: 43°F , 6°C
Wind Chill: 37°F , 3°C
Dew Point: 27°F , -3°C
Humidity: 53%
Barometer: 30.29 inHg , 1025.7 hPa
Clouds: Clear
Visibility: 10 miles , 16 km
2019/02/19 01:53 KTRL 190153Z AUTO 02010KT 10SM CLR 06/M03 A3029 RMK AO2 SLP257 T00561033
KGVT - Greenville/Major, Texas, USA
Distance from station: E 40mi, 64km
Updated: Mon, 18-Feb-2019 8:10pm CST
Clear
Clear
 Wind from N
Wind: N 7 mph , 11 km/h
Temperature: 41°F , 5°C
Wind Chill: 36°F , 2°C
Dew Point: 28°F , -2°C
Humidity: 61%
Barometer: 30.30 inHg , 1026.1 hPa
Clouds: Clear
Visibility: 10 miles , 16 km
2019/02/19 02:10 KGVT 190210Z AUTO 01006KT 10SM CLR 05/M02 A3030 RMK AO2
 
KFTW - Fort Worth, Texas, USA
Distance from station: WSW 40mi, 65km
Updated: Mon, 18-Feb-2019 7:53pm CST
Clear
Clear
 Wind from NE
Wind: NE 9 mph , 15 km/h
Temperature: 36°F , 2°C
Wind Chill: 29°F , -2°C
Dew Point: 21°F , -6°C
Humidity: 56%
Barometer: 30.27 inHg , 1025.1 hPa
Clouds: Clear
Visibility: 10 miles , 16 km
2019/02/19 01:53 KFTW 190153Z 04008KT 10SM CLR 02/M06 A3027 RMK AO2 SLP256 T00221056
KGYI - Sherman/Denison, Texas, USA
Distance from station: N 43mi, 69km
Updated: Mon, 18-Feb-2019 8:35pm CST
Clear
Clear
 Wind from NE
Wind: NE 10 mph , 17 km/h
Temperature: 36°F , 2°C
Wind Chill: 29°F , -2°C
Dew Point: 23°F , -5°C
Humidity: 60%
Barometer: 30.31 inHg , 1026.4 hPa
Clouds: Clear
Visibility: 10 miles , 16 km
2019/02/19 02:35 KGYI 190235Z AUTO 04009KT 10SM CLR 02/M05 A3031 RMK AO2 T00211052 TSNO
 
KNFW - Fort Worth Nas, Texas, USA
Distance from station: WSW 45mi, 73km
Updated: Mon, 18-Feb-2019 7:52pm CST
Clear
Clear
 Wind from NNE
Wind: NNE 13 mph , 20 km/h
Temperature: 39°F , 4°C
Wind Chill: 31°F , -1°C
Dew Point: 21°F , -6°C
Humidity: 48%
Barometer: 30.28 inHg , 1025.4 hPa
Clouds: Clear
Visibility: 10 miles , 16 km
2019/02/19 01:52 KNFW 190152Z AUTO 03011KT 10SM CLR 04/M06 A3028 RMK AO2 SLP237 T00391056 VISNO N $
KGLE - Gainesville, Texas, USA
Distance from station: NW 46mi, 74km
Updated: Mon, 18-Feb-2019 8:35pm CST
Clear
Clear
 Wind from N
Wind: N 8 mph , 13 km/h, Gust: 16 mph , 26 km/h
Temperature: 36°F , 2°C
Wind Chill: 30°F , -1°C
Dew Point: 21°F , -6°C
Humidity: 56%
Barometer: 30.33 inHg , 1027.1 hPa
Clouds: Clear
Visibility: 10 miles , 16 km
2019/02/19 02:35 KGLE 190235Z AUTO 35007G14KT 10SM CLR 02/M06 A3033 RMK AO2 T00181065
 
KJWY - Midlothian/Wax, Texas, USA
Distance from station: SSW 46mi, 74km
Updated: Mon, 18-Feb-2019 8:35pm CST
Clear
Clear
 Wind from NNE
Wind: NNE 8 mph , 13 km/h
Temperature: 39°F , 4°C
Wind Chill: 33°F , 1°C
Dew Point: 28°F , -2°C
Humidity: 65%
Barometer: 30.28 inHg , 1025.4 hPa
Clouds: Clear
Visibility: 10 miles , 16 km
2019/02/19 02:35 KJWY 190235Z AUTO 03007KT 10SM CLR 04/M02 A3028 RMK AO2 T00401023
KFWS - Fort Worth/88d, Texas, USA
Distance from station: SW 49mi, 79km
Updated: Mon, 18-Feb-2019 8:35pm CST
Clear
Clear
 Wind from NNE
Wind: NNE 8 mph , 13 km/h
Temperature: 37°F , 3°C
Wind Chill: 31°F , -1°C
Dew Point: 25°F , -4°C
Humidity: 60%
Barometer: 30.29 inHg , 1025.7 hPa
Clouds: Clear
Visibility: 10 miles , 16 km
2019/02/19 02:35 KFWS 190235Z AUTO 03007KT 10SM CLR 03/M04 A3029 RMK AO2 T00331041